sensor_id;sensor_type;location;lat;lon;timestamp;temperature;humidity
21267;DHT22;10791;53.108;18.326;2023-04-29T00:01:04;7.90;99.90
21267;DHT22;10791;53.108;18.326;2023-04-29T00:06:07;7.90;99.90
21267;DHT22;10791;53.108;18.326;2023-04-29T00:11:11;7.80;99.90
21267;DHT22;10791;53.108;18.326;2023-04-29T00:16:14;7.80;99.90
21267;DHT22;10791;53.108;18.326;2023-04-29T00:21:18;7.90;99.90
21267;DHT22;10791;53.108;18.326;2023-04-29T00:26:21;8.00;99.90
21267;DHT22;10791;53.108;18.326;2023-04-29T00:31:24;7.80;99.90
21267;DHT22;10791;53.108;18.326;2023-04-29T00:36:27;7.90;99.90
21267;DHT22;10791;53.108;18.326;2023-04-29T00:41:31;7.80;99.90
21267;DHT22;10791;53.108;18.326;2023-04-29T00:46:35;7.60;99.90
21267;DHT22;10791;53.108;18.326;2023-04-29T00:51:40;7.50;99.90
21267;DHT22;10791;53.108;18.326;2023-04-29T00:56:44;7.60;99.90
21267;DHT22;10791;53.108;18.326;2023-04-29T01:01:48;7.60;99.90
21267;DHT22;10791;53.108;18.326;2023-04-29T01:17:43;7.10;99.90
21267;DHT22;10791;53.108;18.326;2023-04-29T01:22:50;7.00;99.90
21267;DHT22;10791;53.108;18.326;2023-04-29T01:43:55;6.60;99.90
21267;DHT22;10791;53.108;18.326;2023-04-29T01:49:00;6.50;99.90
21267;DHT22;10791;53.108;18.326;2023-04-29T01:54:04;6.40;99.90
21267;DHT22;10791;53.108;18.326;2023-04-29T01:59:07;6.30;99.90
21267;DHT22;10791;53.108;18.326;2023-04-29T02:04:10;6.30;99.90
21267;DHT22;10791;53.108;18.326;2023-04-29T02:09:13;6.40;99.90
21267;DHT22;10791;53.108;18.326;2023-04-29T02:14:17;6.30;99.90
21267;DHT22;10791;53.108;18.326;2023-04-29T02:19:20;6.30;99.90
21267;DHT22;10791;53.108;18.326;2023-04-29T02:24:23;6.50;99.90
21267;DHT22;10791;53.108;18.326;2023-04-29T02:29:27;6.50;99.90
21267;DHT22;10791;53.108;18.326;2023-04-29T02:34:32;6.50;99.90
21267;DHT22;10791;53.108;18.326;2023-04-29T02:39:36;6.50;99.90
21267;DHT22;10791;53.108;18.326;2023-04-29T02:44:39;6.50;99.90
21267;DHT22;10791;53.108;18.326;2023-04-29T02:49:44;6.50;99.90
21267;DHT22;10791;53.108;18.326;2023-04-29T02:54:47;6.50;99.90
21267;DHT22;10791;53.108;18.326;2023-04-29T02:59:50;6.60;99.90
21267;DHT22;10791;53.108;18.326;2023-04-29T03:04:54;6.50;99.90
21267;DHT22;10791;53.108;18.326;2023-04-29T03:09:57;6.60;99.90
21267;DHT22;10791;53.108;18.326;2023-04-29T03:15:01;6.80;99.90
21267;DHT22;10791;53.108;18.326;2023-04-29T03:20:05;6.80;99.90
21267;DHT22;10791;53.108;18.326;2023-04-29T03:25:08;6.80;99.90
21267;DHT22;10791;53.108;18.326;2023-04-29T03:30:12;6.90;99.90
21267;DHT22;10791;53.108;18.326;2023-04-29T03:35:15;7.00;99.90
21267;DHT22;10791;53.108;18.326;2023-04-29T03:40:19;6.90;99.90
21267;DHT22;10791;53.108;18.326;2023-04-29T03:45:22;6.90;99.90
21267;DHT22;10791;53.108;18.326;2023-04-29T03:50:26;6.80;99.90
21267;DHT22;10791;53.108;18.326;2023-04-29T03:55:30;6.90;99.90
21267;DHT22;10791;53.108;18.326;2023-04-29T04:00:33;7.00;99.90
21267;DHT22;10791;53.108;18.326;2023-04-29T04:05:36;7.00;99.90
21267;DHT22;10791;53.108;18.326;2023-04-29T04:10:39;7.10;99.90
21267;DHT22;10791;53.108;18.326;2023-04-29T04:15:49;7.00;99.90
21267;DHT22;10791;53.108;18.326;2023-04-29T04:20:53;7.20;99.90
21267;DHT22;10791;53.108;18.326;2023-04-29T04:25:56;7.10;99.90
21267;DHT22;10791;53.108;18.326;2023-04-29T04:30:59;7.20;99.90
21267;DHT22;10791;53.108;18.326;2023-04-29T04:36:03;7.40;99.90
21267;DHT22;10791;53.108;18.326;2023-04-29T04:41:07;7.40;99.90
21267;DHT22;10791;53.108;18.326;2023-04-29T04:46:11;7.50;99.90
21267;DHT22;10791;53.108;18.326;2023-04-29T04:51:15;7.60;99.90
21267;DHT22;10791;53.108;18.326;2023-04-29T04:56:19;7.80;99.90
21267;DHT22;10791;53.108;18.326;2023-04-29T05:01:22;7.90;99.90
21267;DHT22;10791;53.108;18.326;2023-04-29T05:06:26;8.10;99.90
21267;DHT22;10791;53.108;18.326;2023-04-29T05:11:29;8.20;99.90
21267;DHT22;10791;53.108;18.326;2023-04-29T05:16:32;8.40;99.90
21267;DHT22;10791;53.108;18.326;2023-04-29T05:21:36;8.50;99.90
21267;DHT22;10791;53.108;18.326;2023-04-29T05:26:40;8.70;99.90
21267;DHT22;10791;53.108;18.326;2023-04-29T05:31:45;8.90;99.90
21267;DHT22;10791;53.108;18.326;2023-04-29T05:36:49;9.10;99.90
21267;DHT22;10791;53.108;18.326;2023-04-29T05:41:52;9.30;99.90
21267;DHT22;10791;53.108;18.326;2023-04-29T05:46:56;9.40;99.90
21267;DHT22;10791;53.108;18.326;2023-04-29T05:51:59;9.50;99.90
21267;DHT22;10791;53.108;18.326;2023-04-29T05:57:08;9.80;99.90
21267;DHT22;10791;53.108;18.326;2023-04-29T06:02:11;10.00;99.90
21267;DHT22;10791;53.108;18.326;2023-04-29T06:07:15;10.20;99.90
21267;DHT22;10791;53.108;18.326;2023-04-29T06:12:21;10.30;99.90
21267;DHT22;10791;53.108;18.326;2023-04-29T06:17:25;10.40;99.90
21267;DHT22;10791;53.108;18.326;2023-04-29T06:22:31;10.80;99.90
21267;DHT22;10791;53.108;18.326;2023-04-29T06:27:34;11.10;99.90
21267;DHT22;10791;53.108;18.326;2023-04-29T06:32:38;11.50;99.90
21267;DHT22;10791;53.108;18.326;2023-04-29T06:37:42;11.40;99.90
21267;DHT22;10791;53.108;18.326;2023-04-29T06:42:45;11.30;99.90
21267;DHT22;10791;53.108;18.326;2023-04-29T06:47:48;11.30;99.90
21267;DHT22;10791;53.108;18.326;2023-04-29T06:52:51;11.50;99.90
21267;DHT22;10791;53.108;18.326;2023-04-29T06:57:55;11.60;99.90
21267;DHT22;10791;53.108;18.326;2023-04-29T07:02:59;11.90;99.90
21267;DHT22;10791;53.108;18.326;2023-04-29T07:08:04;12.40;99.90
21267;DHT22;10791;53.108;18.326;2023-04-29T07:13:08;12.50;99.90
21267;DHT22;10791;53.108;18.326;2023-04-29T07:18:12;12.50;99.90
21267;DHT22;10791;53.108;18.326;2023-04-29T07:23:16;12.80;99.70
21267;DHT22;10791;53.108;18.326;2023-04-29T07:28:19;12.90;99.40
21267;DHT22;10791;53.108;18.326;2023-04-29T07:33:23;13.10;99.50
21267;DHT22;10791;53.108;18.326;2023-04-29T07:38:27;13.20;99.90
21267;DHT22;10791;53.108;18.326;2023-04-29T07:43:32;13.50;99.50
21267;DHT22;10791;53.108;18.326;2023-04-29T07:48:38;13.60;98.70
21267;DHT22;10791;53.108;18.326;2023-04-29T07:53:42;13.70;98.70
21267;DHT22;10791;53.108;18.326;2023-04-29T07:58:45;13.90;99.00
21267;DHT22;10791;53.108;18.326;2023-04-29T08:03:49;14.00;97.30
21267;DHT22;10791;53.108;18.326;2023-04-29T08:08:52;13.90;97.30
21267;DHT22;10791;53.108;18.326;2023-04-29T08:13:58;14.00;97.60
21267;DHT22;10791;53.108;18.326;2023-04-29T08:19:02;13.90;98.00
21267;DHT22;10791;53.108;18.326;2023-04-29T08:24:05;13.70;98.20
21267;DHT22;10791;53.108;18.326;2023-04-29T08:29:08;13.40;99.60
21267;DHT22;10791;53.108;18.326;2023-04-29T08:34:12;13.30;99.90
21267;DHT22;10791;53.108;18.326;2023-04-29T08:39:15;13.30;99.90
21267;DHT22;10791;53.108;18.326;2023-04-29T08:44:18;13.30;99.90
21267;DHT22;10791;53.108;18.326;2023-04-29T08:49:22;13.20;99.90
21267;DHT22;10791;53.108;18.326;2023-04-29T08:54:26;13.20;99.90
21267;DHT22;10791;53.108;18.326;2023-04-29T08:59:31;13.30;99.90
21267;DHT22;10791;53.108;18.326;2023-04-29T09:09:48;13.10;99.90
21267;DHT22;10791;53.108;18.326;2023-04-29T09:14:53;13.00;99.90
21267;DHT22;10791;53.108;18.326;2023-04-29T09:20:01;12.90;99.90
21267;DHT22;10791;53.108;18.326;2023-04-29T09:25:11;12.80;99.90
21267;DHT22;10791;53.108;18.326;2023-04-29T09:30:15;12.80;99.90
21267;DHT22;10791;53.108;18.326;2023-04-29T09:35:27;12.70;99.90
21267;DHT22;10791;53.108;18.326;2023-04-29T09:40:31;12.60;99.90
21267;DHT22;10791;53.108;18.326;2023-04-29T09:45:48;12.50;99.90
21267;DHT22;10791;53.108;18.326;2023-04-29T09:51:01;12.50;99.90
21267;DHT22;10791;53.108;18.326;2023-04-29T09:56:07;12.40;99.90
21267;DHT22;10791;53.108;18.326;2023-04-29T10:01:11;12.40;99.90
21267;DHT22;10791;53.108;18.326;2023-04-29T10:06:16;12.50;99.90
21267;DHT22;10791;53.108;18.326;2023-04-29T10:11:21;12.50;99.90
21267;DHT22;10791;53.108;18.326;2023-04-29T10:16:29;12.60;99.90
21267;DHT22;10791;53.108;18.326;2023-04-29T10:21:33;12.60;99.90
21267;DHT22;10791;53.108;18.326;2023-04-29T10:26:38;12.70;99.90
21267;DHT22;10791;53.108;18.326;2023-04-29T10:31:48;12.70;99.90
21267;DHT22;10791;53.108;18.326;2023-04-29T10:36:53;12.70;99.90
21267;DHT22;10791;53.108;18.326;2023-04-29T10:41:56;12.90;99.90
21267;DHT22;10791;53.108;18.326;2023-04-29T10:47:18;13.00;99.90
21267;DHT22;10791;53.108;18.326;2023-04-29T10:52:23;13.20;99.90
21267;DHT22;10791;53.108;18.326;2023-04-29T10:57:29;13.30;99.90
21267;DHT22;10791;53.108;18.326;2023-04-29T11:02:33;13.30;99.90
21267;DHT22;10791;53.108;18.326;2023-04-29T11:07:36;13.40;99.90
21267;DHT22;10791;53.108;18.326;2023-04-29T11:12:40;13.40;99.90
21267;DHT22;10791;53.108;18.326;2023-04-29T11:17:45;13.40;99.90
21267;DHT22;10791;53.108;18.326;2023-04-29T11:22:50;13.50;99.90
21267;DHT22;10791;53.108;18.326;2023-04-29T11:27:54;13.70;99.90
21267;DHT22;10791;53.108;18.326;2023-04-29T11:32:58;14.00;99.90
21267;DHT22;10791;53.108;18.326;2023-04-29T11:38:03;14.10;99.90
21267;DHT22;10791;53.108;18.326;2023-04-29T11:43:08;14.40;99.90
21267;DHT22;10791;53.108;18.326;2023-04-29T11:48:21;14.80;99.90
21267;DHT22;10791;53.108;18.326;2023-04-29T11:53:25;15.30;99.90
21267;DHT22;10791;53.108;18.326;2023-04-29T11:58:32;15.40;99.90
21267;DHT22;10791;53.108;18.326;2023-04-29T12:03:35;15.60;99.90
21267;DHT22;10791;53.108;18.326;2023-04-29T12:08:39;15.70;99.60
21267;DHT22;10791;53.108;18.326;2023-04-29T12:13:42;15.80;99.10
21267;DHT22;10791;53.108;18.326;2023-04-29T12:18:45;15.70;98.70
21267;DHT22;10791;53.108;18.326;2023-04-29T12:23:50;16.00;98.40
21267;DHT22;10791;53.108;18.326;2023-04-29T12:28:56;16.00;98.10
21267;DHT22;10791;53.108;18.326;2023-04-29T12:34:03;16.20;99.10
21267;DHT22;10791;53.108;18.326;2023-04-29T12:39:11;16.50;97.60
21267;DHT22;10791;53.108;18.326;2023-04-29T12:44:14;16.80;97.00
21267;DHT22;10791;53.108;18.326;2023-04-29T12:49:18;17.20;96.20
21267;DHT22;10791;53.108;18.326;2023-04-29T12:54:22;17.50;95.50
21267;DHT22;10791;53.108;18.326;2023-04-29T12:59:28;17.70;95.30
21267;DHT22;10791;53.108;18.326;2023-04-29T13:04:32;18.00;94.90
21267;DHT22;10791;53.108;18.326;2023-04-29T13:09:35;18.00;95.20
21267;DHT22;10791;53.108;18.326;2023-04-29T13:14:40;18.00;94.70
21267;DHT22;10791;53.108;18.326;2023-04-29T13:19:43;18.00;94.40
21267;DHT22;10791;53.108;18.326;2023-04-29T13:24:53;18.00;94.70
21267;DHT22;10791;53.108;18.326;2023-04-29T13:29:58;18.20;94.60
21267;DHT22;10791;53.108;18.326;2023-04-29T13:35:03;18.40;94.00
21267;DHT22;10791;53.108;18.326;2023-04-29T13:40:08;18.30;92.90
21267;DHT22;10791;53.108;18.326;2023-04-29T13:45:23;18.10;93.70
21267;DHT22;10791;53.108;18.326;2023-04-29T13:50:30;18.00;92.40
21267;DHT22;10791;53.108;18.326;2023-04-29T13:55:38;18.20;93.00
21267;DHT22;10791;53.108;18.326;2023-04-29T14:01:03;18.20;92.60
21267;DHT22;10791;53.108;18.326;2023-04-29T14:06:28;18.50;94.10
21267;DHT22;10791;53.108;18.326;2023-04-29T14:11:35;18.80;92.10
21267;DHT22;10791;53.108;18.326;2023-04-29T14:16:40;19.00;91.30
21267;DHT22;10791;53.108;18.326;2023-04-29T14:21:44;19.20;90.20
21267;DHT22;10791;53.108;18.326;2023-04-29T14:26:48;19.30;91.30
21267;DHT22;10791;53.108;18.326;2023-04-29T14:31:51;19.60;91.10
21267;DHT22;10791;53.108;18.326;2023-04-29T14:36:55;19.80;90.00
21267;DHT22;10791;53.108;18.326;2023-04-29T14:42:01;19.50;90.70
21267;DHT22;10791;53.108;18.326;2023-04-29T14:47:05;19.20;91.80
21267;DHT22;10791;53.108;18.326;2023-04-29T14:52:09;18.80;90.00
21267;DHT22;10791;53.108;18.326;2023-04-29T14:57:12;18.60;91.70
21267;DHT22;10791;53.108;18.326;2023-04-29T15:02:15;18.40;91.10
21267;DHT22;10791;53.108;18.326;2023-04-29T15:07:19;18.30;91.50
21267;DHT22;10791;53.108;18.326;2023-04-29T15:12:24;18.20;91.60
21267;DHT22;10791;53.108;18.326;2023-04-29T15:17:27;18.40;93.10
21267;DHT22;10791;53.108;18.326;2023-04-29T15:22:30;18.40;91.30
21267;DHT22;10791;53.108;18.326;2023-04-29T15:27:35;18.40;92.00
21267;DHT22;10791;53.108;18.326;2023-04-29T15:32:38;18.30;91.30
21267;DHT22;10791;53.108;18.326;2023-04-29T15:37:41;18.10;91.60
21267;DHT22;10791;53.108;18.326;2023-04-29T15:42:45;18.10;92.00
21267;DHT22;10791;53.108;18.326;2023-04-29T15:47:48;18.20;93.00
21267;DHT22;10791;53.108;18.326;2023-04-29T15:52:51;18.20;92.50
21267;DHT22;10791;53.108;18.326;2023-04-29T15:57:57;18.30;92.40
21267;DHT22;10791;53.108;18.326;2023-04-29T16:03:01;18.30;92.30
21267;DHT22;10791;53.108;18.326;2023-04-29T16:08:05;18.20;92.30
21267;DHT22;10791;53.108;18.326;2023-04-29T16:13:09;18.20;93.10
21267;DHT22;10791;53.108;18.326;2023-04-29T16:18:13;18.20;93.70
21267;DHT22;10791;53.108;18.326;2023-04-29T16:23:17;18.10;92.60
21267;DHT22;10791;53.108;18.326;2023-04-29T16:28:20;18.00;92.70
21267;DHT22;10791;53.108;18.326;2023-04-29T16:33:23;17.80;93.00
21267;DHT22;10791;53.108;18.326;2023-04-29T16:38:27;17.70;93.40
21267;DHT22;10791;53.108;18.326;2023-04-29T16:43:30;17.60;93.90
21267;DHT22;10791;53.108;18.326;2023-04-29T16:48:34;17.40;94.30
21267;DHT22;10791;53.108;18.326;2023-04-29T16:53:37;17.40;94.10
21267;DHT22;10791;53.108;18.326;2023-04-29T16:58:41;17.40;94.30
21267;DHT22;10791;53.108;18.326;2023-04-29T17:03:48;17.30;94.70
21267;DHT22;10791;53.108;18.326;2023-04-29T17:08:51;17.20;94.90
21267;DHT22;10791;53.108;18.326;2023-04-29T17:13:54;17.20;96.10
21267;DHT22;10791;53.108;18.326;2023-04-29T17:18:58;17.20;97.10
21267;DHT22;10791;53.108;18.326;2023-04-29T17:24:01;17.10;98.10
21267;DHT22;10791;53.108;18.326;2023-04-29T17:29:05;17.00;98.60
21267;DHT22;10791;53.108;18.326;2023-04-29T17:34:10;16.90;98.30
21267;DHT22;10791;53.108;18.326;2023-04-29T17:39:21;16.70;98.50
21267;DHT22;10791;53.108;18.326;2023-04-29T17:44:26;16.60;98.50
21267;DHT22;10791;53.108;18.326;2023-04-29T17:49:30;16.40;99.60
21267;DHT22;10791;53.108;18.326;2023-04-29T17:54:41;16.10;99.90
21267;DHT22;10791;53.108;18.326;2023-04-29T17:59:47;15.70;99.90
21267;DHT22;10791;53.108;18.326;2023-04-29T18:04:54;15.50;99.90
21267;DHT22;10791;53.108;18.326;2023-04-29T18:09:59;15.20;99.90
21267;DHT22;10791;53.108;18.326;2023-04-29T18:15:05;14.70;99.90
21267;DHT22;10791;53.108;18.326;2023-04-29T18:20:14;13.70;99.90
21267;DHT22;10791;53.108;18.326;2023-04-29T18:25:17;13.40;99.90
21267;DHT22;10791;53.108;18.326;2023-04-29T18:30:21;12.90;99.90
21267;DHT22;10791;53.108;18.326;2023-04-29T18:35:25;12.50;99.90
21267;DHT22;10791;53.108;18.326;2023-04-29T18:40:29;12.30;99.90
21267;DHT22;10791;53.108;18.326;2023-04-29T18:45:33;12.30;99.90
21267;DHT22;10791;53.108;18.326;2023-04-29T18:50:39;12.40;99.90
21267;DHT22;10791;53.108;18.326;2023-04-29T18:55:44;12.50;99.90
21267;DHT22;10791;53.108;18.326;2023-04-29T19:00:50;12.60;99.90
21267;DHT22;10791;53.108;18.326;2023-04-29T19:05:57;12.60;99.90
21267;DHT22;10791;53.108;18.326;2023-04-29T19:11:02;12.60;99.90
21267;DHT22;10791;53.108;18.326;2023-04-29T19:16:06;12.50;99.90
21267;DHT22;10791;53.108;18.326;2023-04-29T19:21:12;12.50;99.90
21267;DHT22;10791;53.108;18.326;2023-04-29T19:26:17;12.10;99.90
21267;DHT22;10791;53.108;18.326;2023-04-29T19:31:22;11.80;99.90
21267;DHT22;10791;53.108;18.326;2023-04-29T19:36:28;11.80;99.90
21267;DHT22;10791;53.108;18.326;2023-04-29T19:41:33;11.70;99.90
21267;DHT22;10791;53.108;18.326;2023-04-29T19:46:37;11.60;99.90
21267;DHT22;10791;53.108;18.326;2023-04-29T19:51:45;11.50;99.90
21267;DHT22;10791;53.108;18.326;2023-04-29T19:56:53;11.30;99.90
21267;DHT22;10791;53.108;18.326;2023-04-29T20:01:57;11.20;99.90
21267;DHT22;10791;53.108;18.326;2023-04-29T20:07:02;11.10;99.90
21267;DHT22;10791;53.108;18.326;2023-04-29T20:12:07;11.10;99.90
21267;DHT22;10791;53.108;18.326;2023-04-29T20:17:10;11.10;99.90
21267;DHT22;10791;53.108;18.326;2023-04-29T20:22:14;11.20;99.90
21267;DHT22;10791;53.108;18.326;2023-04-29T20:27:18;11.30;99.90
21267;DHT22;10791;53.108;18.326;2023-04-29T20:32:24;11.30;99.90
21267;DHT22;10791;53.108;18.326;2023-04-29T20:37:30;11.30;99.90
21267;DHT22;10791;53.108;18.326;2023-04-29T20:42:35;11.30;99.90
21267;DHT22;10791;53.108;18.326;2023-04-29T20:47:41;11.30;99.90
21267;DHT22;10791;53.108;18.326;2023-04-29T20:52:46;11.30;99.90
21267;DHT22;10791;53.108;18.326;2023-04-29T20:57:51;11.30;99.90
21267;DHT22;10791;53.108;18.326;2023-04-29T21:02:54;11.30;99.90
21267;DHT22;10791;53.108;18.326;2023-04-29T21:07:57;11.20;99.90
21267;DHT22;10791;53.108;18.326;2023-04-29T21:13:01;11.10;99.90
21267;DHT22;10791;53.108;18.326;2023-04-29T21:18:04;11.10;99.90
21267;DHT22;10791;53.108;18.326;2023-04-29T21:23:09;11.10;99.90
21267;DHT22;10791;53.108;18.326;2023-04-29T21:28:12;11.00;99.90
21267;DHT22;10791;53.108;18.326;2023-04-29T21:33:18;10.80;99.90
21267;DHT22;10791;53.108;18.326;2023-04-29T21:38:21;10.60;99.90
21267;DHT22;10791;53.108;18.326;2023-04-29T21:43:26;10.50;99.90
21267;DHT22;10791;53.108;18.326;2023-04-29T21:48:30;10.20;99.90
21267;DHT22;10791;53.108;18.326;2023-04-29T21:53:34;10.10;99.90
21267;DHT22;10791;53.108;18.326;2023-04-29T21:58:39;10.10;99.90
21267;DHT22;10791;53.108;18.326;2023-04-29T22:03:44;9.90;99.90
21267;DHT22;10791;53.108;18.326;2023-04-29T22:08:47;9.80;99.90
21267;DHT22;10791;53.108;18.326;2023-04-29T22:13:51;9.80;99.90
21267;DHT22;10791;53.108;18.326;2023-04-29T22:18:54;9.80;99.90
21267;DHT22;10791;53.108;18.326;2023-04-29T22:23:59;9.80;99.90
21267;DHT22;10791;53.108;18.326;2023-04-29T22:29:02;9.80;99.90
21267;DHT22;10791;53.108;18.326;2023-04-29T22:34:06;9.80;99.90
21267;DHT22;10791;53.108;18.326;2023-04-29T22:39:09;9.70;99.90
21267;DHT22;10791;53.108;18.326;2023-04-29T22:44:13;9.60;99.90
21267;DHT22;10791;53.108;18.326;2023-04-29T22:49:17;9.60;99.90
21267;DHT22;10791;53.108;18.326;2023-04-29T22:54:20;9.50;99.90
21267;DHT22;10791;53.108;18.326;2023-04-29T22:59:24;9.40;99.90
21267;DHT22;10791;53.108;18.326;2023-04-29T23:04:27;9.30;99.90
21267;DHT22;10791;53.108;18.326;2023-04-29T23:09:30;9.20;99.90
21267;DHT22;10791;53.108;18.326;2023-04-29T23:14:34;9.00;99.90
21267;DHT22;10791;53.108;18.326;2023-04-29T23:19:37;8.90;99.90
21267;DHT22;10791;53.108;18.326;2023-04-29T23:24:40;8.90;99.90
21267;DHT22;10791;53.108;18.326;2023-04-29T23:29:43;8.80;99.90
21267;DHT22;10791;53.108;18.326;2023-04-29T23:34:47;8.70;99.90
21267;DHT22;10791;53.108;18.326;2023-04-29T23:39:50;8.60;99.90
21267;DHT22;10791;53.108;18.326;2023-04-29T23:44:54;8.50;99.90
21267;DHT22;10791;53.108;18.326;2023-04-29T23:49:57;8.40;99.90
21267;DHT22;10791;53.108;18.326;2023-04-29T23:55:01;8.30;99.90
